sensor_id;sensor_type;location;lat;lon;timestamp;P1;durP1;ratioP1;P2;durP2;ratioP2
74935;SDS011;63501;55.570;37.488;2022-11-15T03:53:50;1.80;;;0.30;;
74935;SDS011;63501;55.570;37.488;2022-11-15T03:56:16;0.32;;;0.30;;
74935;SDS011;63501;55.570;37.488;2022-11-15T03:58:42;0.63;;;0.40;;
74935;SDS011;63501;55.570;37.488;2022-11-15T04:01:07;2.15;;;0.40;;
74935;SDS011;63501;55.570;37.488;2022-11-15T04:03:33;1.17;;;0.40;;
74935;SDS011;63501;55.570;37.488;2022-11-15T04:05:58;2.15;;;0.60;;
74935;SDS011;63501;55.570;37.488;2022-11-15T04:08:24;1.67;;;0.50;;
74935;SDS011;63501;55.570;37.488;2022-11-15T04:10:51;0.50;;;0.50;;
74935;SDS011;63501;55.570;37.488;2022-11-15T04:13:16;2.88;;;0.50;;
74935;SDS011;63501;55.570;37.488;2022-11-15T04:15:42;1.30;;;0.50;;
74935;SDS011;63501;55.570;37.488;2022-11-15T04:18:07;3.35;;;0.75;;
74935;SDS011;63501;55.570;37.488;2022-11-15T04:20:33;5.32;;;1.90;;
74935;SDS011;63501;55.570;37.488;2022-11-15T04:23:19;1.90;;;1.10;;
74935;SDS011;63501;55.570;37.488;2022-11-15T04:26:05;1.95;;;0.40;;
74935;SDS011;63501;55.570;37.488;2022-11-15T04:28:36;1.00;;;0.40;;
74935;SDS011;63501;55.570;37.488;2022-11-15T04:31:21;0.73;;;0.40;;
74935;SDS011;63501;55.570;37.488;2022-11-15T04:33:47;1.95;;;0.50;;
74935;SDS011;63501;55.570;37.488;2022-11-15T04:36:12;1.95;;;0.65;;
74935;SDS011;63501;55.570;37.488;2022-11-15T04:38:57;1.15;;;0.50;;
74935;SDS011;63501;55.570;37.488;2022-11-15T04:41:22;3.38;;;1.02;;
74935;SDS011;63501;55.570;37.488;2022-11-15T04:43:48;2.33;;;0.50;;
74935;SDS011;63501;55.570;37.488;2022-11-15T04:46:13;2.38;;;0.60;;
74935;SDS011;63501;55.570;37.488;2022-11-15T04:48:39;4.28;;;0.80;;
74935;SDS011;63501;55.570;37.488;2022-11-15T04:51:04;1.70;;;0.50;;
74935;SDS011;63501;55.570;37.488;2022-11-15T04:53:30;0.85;;;0.40;;
74935;SDS011;63501;55.570;37.488;2022-11-15T04:55:55;2.05;;;0.43;;
74935;SDS011;63501;55.570;37.488;2022-11-15T04:58:21;2.25;;;0.70;;
74935;SDS011;63501;55.570;37.488;2022-11-15T05:00:46;1.92;;;0.65;;
74935;SDS011;63501;55.570;37.488;2022-11-15T05:03:12;2.47;;;0.63;;
74935;SDS011;63501;55.570;37.488;2022-11-15T05:05:56;1.58;;;0.57;;
74935;SDS011;63501;55.570;37.488;2022-11-15T05:08:22;2.67;;;1.00;;
74935;SDS011;63501;55.570;37.488;2022-11-15T05:10:48;0.93;;;0.60;;
74935;SDS011;63501;55.570;37.488;2022-11-15T05:13:14;5.15;;;1.10;;
74935;SDS011;63501;55.570;37.488;2022-11-15T05:15:39;1.45;;;0.60;;
74935;SDS011;63501;55.570;37.488;2022-11-15T05:18:05;2.55;;;0.80;;
74935;SDS011;63501;55.570;37.488;2022-11-15T05:20:30;2.53;;;0.70;;
74935;SDS011;63501;55.570;37.488;2022-11-15T05:22:56;3.35;;;0.60;;
74935;SDS011;63501;55.570;37.488;2022-11-15T05:25:22;2.67;;;0.70;;
74935;SDS011;63501;55.570;37.488;2022-11-15T05:27:48;1.95;;;1.20;;
74935;SDS011;63501;55.570;37.488;2022-11-15T05:30:14;1.30;;;0.63;;
74935;SDS011;63501;55.570;37.488;2022-11-15T05:32:40;1.35;;;0.32;;
74935;SDS011;63501;55.570;37.488;2022-11-15T05:35:06;3.13;;;0.70;;
74935;SDS011;63501;55.570;37.488;2022-11-15T05:37:34;0.88;;;0.40;;
74935;SDS011;63501;55.570;37.488;2022-11-15T05:39:59;4.10;;;0.60;;
74935;SDS011;63501;55.570;37.488;2022-11-15T05:42:25;2.20;;;0.80;;
74935;SDS011;63501;55.570;37.488;2022-11-15T05:44:52;3.55;;;0.80;;
74935;SDS011;63501;55.570;37.488;2022-11-15T05:47:21;1.20;;;0.50;;
74935;SDS011;63501;55.570;37.488;2022-11-15T05:49:50;2.15;;;0.75;;
74935;SDS011;63501;55.570;37.488;2022-11-15T05:52:19;2.80;;;0.52;;
74935;SDS011;63501;55.570;37.488;2022-11-15T05:54:47;0.90;;;0.68;;
74935;SDS011;63501;55.570;37.488;2022-11-15T05:57:15;1.27;;;0.60;;
74935;SDS011;63501;55.570;37.488;2022-11-15T05:59:41;1.63;;;0.65;;
74935;SDS011;63501;55.570;37.488;2022-11-15T06:02:09;0.88;;;0.60;;
74935;SDS011;63501;55.570;37.488;2022-11-15T06:04:35;2.50;;;0.70;;
74935;SDS011;63501;55.570;37.488;2022-11-15T06:07:01;1.65;;;0.73;;
74935;SDS011;63501;55.570;37.488;2022-11-15T06:09:27;1.35;;;0.50;;
74935;SDS011;63501;55.570;37.488;2022-11-15T06:11:53;1.75;;;0.68;;
74935;SDS011;63501;55.570;37.488;2022-11-15T06:14:18;1.42;;;0.70;;
74935;SDS011;63501;55.570;37.488;2022-11-15T06:16:44;1.60;;;1.02;;
74935;SDS011;63501;55.570;37.488;2022-11-15T06:19:09;2.40;;;0.90;;
74935;SDS011;63501;55.570;37.488;2022-11-15T06:21:35;2.13;;;0.80;;
74935;SDS011;63501;55.570;37.488;2022-11-15T06:24:00;1.95;;;0.82;;
74935;SDS011;63501;55.570;37.488;2022-11-15T06:26:26;4.05;;;0.90;;
74935;SDS011;63501;55.570;37.488;2022-11-15T06:28:52;2.08;;;0.70;;
74935;SDS011;63501;55.570;37.488;2022-11-15T06:31:17;4.93;;;1.15;;
74935;SDS011;63501;55.570;37.488;2022-11-15T06:33:43;2.40;;;0.60;;
74935;SDS011;63501;55.570;37.488;2022-11-15T06:36:10;1.63;;;0.60;;
74935;SDS011;63501;55.570;37.488;2022-11-15T06:38:41;1.70;;;0.65;;
74935;SDS011;63501;55.570;37.488;2022-11-15T06:41:08;3.33;;;1.05;;
74935;SDS011;63501;55.570;37.488;2022-11-15T06:43:34;3.28;;;1.10;;
74935;SDS011;63501;55.570;37.488;2022-11-15T06:46:01;1.85;;;0.90;;
74935;SDS011;63501;55.570;37.488;2022-11-15T06:48:28;3.17;;;0.90;;
74935;SDS011;63501;55.570;37.488;2022-11-15T06:50:56;2.80;;;1.10;;
74935;SDS011;63501;55.570;37.488;2022-11-15T06:53:23;4.25;;;0.82;;
74935;SDS011;63501;55.570;37.488;2022-11-15T06:55:49;2.97;;;0.77;;
74935;SDS011;63501;55.570;37.488;2022-11-15T06:58:15;2.72;;;0.90;;
74935;SDS011;63501;55.570;37.488;2022-11-15T07:00:40;3.42;;;0.80;;
74935;SDS011;63501;55.570;37.488;2022-11-15T07:03:06;3.35;;;0.82;;
74935;SDS011;63501;55.570;37.488;2022-11-15T07:05:32;4.65;;;1.45;;
74935;SDS011;63501;55.570;37.488;2022-11-15T07:07:59;1.95;;;1.00;;
74935;SDS011;63501;55.570;37.488;2022-11-15T07:10:24;1.45;;;0.80;;
74935;SDS011;63501;55.570;37.488;2022-11-15T07:12:51;4.32;;;1.00;;
74935;SDS011;63501;55.570;37.488;2022-11-15T07:15:18;3.10;;;0.90;;
74935;SDS011;63501;55.570;37.488;2022-11-15T07:17:45;2.28;;;0.95;;
74935;SDS011;63501;55.570;37.488;2022-11-15T07:20:11;1.95;;;0.77;;
74935;SDS011;63501;55.570;37.488;2022-11-15T07:22:38;2.72;;;1.00;;
74935;SDS011;63501;55.570;37.488;2022-11-15T07:25:04;1.40;;;0.60;;
74935;SDS011;63501;55.570;37.488;2022-11-15T07:27:30;1.58;;;1.00;;
74935;SDS011;63501;55.570;37.488;2022-11-15T07:29:56;1.88;;;1.25;;
74935;SDS011;63501;55.570;37.488;2022-11-15T07:32:21;1.45;;;0.70;;
74935;SDS011;63501;55.570;37.488;2022-11-15T07:34:47;2.15;;;0.80;;
74935;SDS011;63501;55.570;37.488;2022-11-15T07:37:12;3.45;;;0.93;;
74935;SDS011;63501;55.570;37.488;2022-11-15T07:39:38;1.85;;;0.77;;
74935;SDS011;63501;55.570;37.488;2022-11-15T07:42:03;3.78;;;0.80;;
74935;SDS011;63501;55.570;37.488;2022-11-15T07:44:48;1.08;;;0.60;;
74935;SDS011;63501;55.570;37.488;2022-11-15T07:47:13;2.47;;;0.70;;
74935;SDS011;63501;55.570;37.488;2022-11-15T07:49:39;1.20;;;0.47;;
74935;SDS011;63501;55.570;37.488;2022-11-15T07:52:05;2.88;;;0.82;;
74935;SDS011;63501;55.570;37.488;2022-11-15T07:54:30;3.53;;;0.85;;
74935;SDS011;63501;55.570;37.488;2022-11-15T07:56:56;4.28;;;0.90;;
74935;SDS011;63501;55.570;37.488;2022-11-15T07:59:21;2.85;;;0.80;;
74935;SDS011;63501;55.570;37.488;2022-11-15T08:01:47;3.53;;;1.20;;
74935;SDS011;63501;55.570;37.488;2022-11-15T08:04:12;2.53;;;1.08;;
74935;SDS011;63501;55.570;37.488;2022-11-15T08:06:38;1.88;;;0.90;;
74935;SDS011;63501;55.570;37.488;2022-11-15T08:09:03;3.60;;;1.30;;
74935;SDS011;63501;55.570;37.488;2022-11-15T08:11:29;2.85;;;0.70;;
74935;SDS011;63501;55.570;37.488;2022-11-15T08:13:55;3.63;;;1.05;;
74935;SDS011;63501;55.570;37.488;2022-11-15T08:16:20;2.08;;;1.13;;
74935;SDS011;63501;55.570;37.488;2022-11-15T08:18:46;2.95;;;0.77;;
74935;SDS011;63501;55.570;37.488;2022-11-15T08:21:17;2.38;;;0.82;;
74935;SDS011;63501;55.570;37.488;2022-11-15T08:23:44;3.55;;;0.93;;
74935;SDS011;63501;55.570;37.488;2022-11-15T08:26:09;3.20;;;0.82;;
74935;SDS011;63501;55.570;37.488;2022-11-15T08:28:35;3.25;;;1.00;;
74935;SDS011;63501;55.570;37.488;2022-11-15T08:31:01;4.35;;;1.00;;
74935;SDS011;63501;55.570;37.488;2022-11-15T08:33:28;3.35;;;0.70;;
74935;SDS011;63501;55.570;37.488;2022-11-15T08:35:56;4.80;;;0.95;;
74935;SDS011;63501;55.570;37.488;2022-11-15T08:40:47;1.30;;;0.70;;
74935;SDS011;63501;55.570;37.488;2022-11-15T08:43:13;2.53;;;1.02;;
74935;SDS011;63501;55.570;37.488;2022-11-15T08:45:39;3.08;;;0.88;;
74935;SDS011;63501;55.570;37.488;2022-11-15T08:48:04;1.95;;;1.30;;
74935;SDS011;63501;55.570;37.488;2022-11-15T08:50:31;2.45;;;1.00;;
74935;SDS011;63501;55.570;37.488;2022-11-15T08:52:57;2.30;;;1.25;;
74935;SDS011;63501;55.570;37.488;2022-11-15T08:55:22;2.10;;;0.77;;
74935;SDS011;63501;55.570;37.488;2022-11-15T08:57:48;1.90;;;0.90;;
74935;SDS011;63501;55.570;37.488;2022-11-15T09:00:13;2.35;;;1.13;;
74935;SDS011;63501;55.570;37.488;2022-11-15T09:02:39;3.85;;;1.60;;
74935;SDS011;63501;55.570;37.488;2022-11-15T09:05:05;3.63;;;1.08;;
74935;SDS011;63501;55.570;37.488;2022-11-15T09:07:31;1.70;;;0.70;;
74935;SDS011;63501;55.570;37.488;2022-11-15T09:09:57;1.50;;;0.80;;
74935;SDS011;63501;55.570;37.488;2022-11-15T09:12:23;4.25;;;2.10;;
74935;SDS011;63501;55.570;37.488;2022-11-15T09:14:49;4.65;;;1.10;;
74935;SDS011;63501;55.570;37.488;2022-11-15T09:17:14;2.92;;;0.82;;
74935;SDS011;63501;55.570;37.488;2022-11-15T09:19:40;2.13;;;0.50;;
74935;SDS011;63501;55.570;37.488;2022-11-15T09:22:06;4.40;;;0.88;;
74935;SDS011;63501;55.570;37.488;2022-11-15T09:24:33;3.78;;;1.08;;
74935;SDS011;63501;55.570;37.488;2022-11-15T09:26:58;3.03;;;0.90;;
74935;SDS011;63501;55.570;37.488;2022-11-15T09:29:24;2.25;;;0.80;;
74935;SDS011;63501;55.570;37.488;2022-11-15T09:31:51;3.90;;;0.90;;
74935;SDS011;63501;55.570;37.488;2022-11-15T09:34:17;0.85;;;0.70;;
74935;SDS011;63501;55.570;37.488;2022-11-15T09:36:43;3.63;;;1.10;;
74935;SDS011;63501;55.570;37.488;2022-11-15T09:39:08;3.72;;;1.30;;
74935;SDS011;63501;55.570;37.488;2022-11-15T09:49:57;5.88;;;1.25;;
74935;SDS011;63501;55.570;37.488;2022-11-15T09:52:26;2.60;;;0.85;;
74935;SDS011;63501;55.570;37.488;2022-11-15T09:54:55;2.05;;;1.10;;
74935;SDS011;63501;55.570;37.488;2022-11-15T09:57:30;1.45;;;0.65;;
74935;SDS011;63501;55.570;37.488;2022-11-15T10:10:40;2.08;;;0.65;;
74935;SDS011;63501;55.570;37.488;2022-11-15T10:24:39;1.63;;;0.50;;
74935;SDS011;63501;55.570;37.488;2022-11-15T10:27:11;2.00;;;0.80;;
74935;SDS011;63501;55.570;37.488;2022-11-15T10:29:44;4.50;;;1.58;;
74935;SDS011;63501;55.570;37.488;2022-11-15T10:32:12;2.90;;;0.88;;
74935;SDS011;63501;55.570;37.488;2022-11-15T10:34:39;3.05;;;0.90;;
74935;SDS011;63501;55.570;37.488;2022-11-15T10:37:05;1.20;;;0.70;;
74935;SDS011;63501;55.570;37.488;2022-11-15T10:39:31;2.25;;;0.90;;
74935;SDS011;63501;55.570;37.488;2022-11-15T10:41:58;1.45;;;0.65;;
74935;SDS011;63501;55.570;37.488;2022-11-15T10:44:41;2.80;;;0.80;;
74935;SDS011;63501;55.570;37.488;2022-11-15T10:47:22;1.13;;;0.45;;
74935;SDS011;63501;55.570;37.488;2022-11-15T10:52:21;2.20;;;0.60;;
74935;SDS011;63501;55.570;37.488;2022-11-15T10:54:54;1.00;;;0.50;;
74935;SDS011;63501;55.570;37.488;2022-11-15T10:57:27;0.50;;;0.40;;
74935;SDS011;63501;55.570;37.488;2022-11-15T11:00:00;1.33;;;0.52;;
74935;SDS011;63501;55.570;37.488;2022-11-15T11:02:30;1.98;;;0.52;;
74935;SDS011;63501;55.570;37.488;2022-11-15T11:04:59;3.30;;;1.33;;
74935;SDS011;63501;55.570;37.488;2022-11-15T11:07:27;1.10;;;0.60;;
74935;SDS011;63501;55.570;37.488;2022-11-15T11:09:57;4.03;;;1.38;;
74935;SDS011;63501;55.570;37.488;2022-11-15T11:12:42;3.92;;;1.08;;
74935;SDS011;63501;55.570;37.488;2022-11-15T11:15:12;1.40;;;0.50;;
74935;SDS011;63501;55.570;37.488;2022-11-15T11:26:14;2.05;;;1.05;;
74935;SDS011;63501;55.570;37.488;2022-11-15T11:31:53;1.15;;;0.60;;
74935;SDS011;63501;55.570;37.488;2022-11-15T11:34:37;3.05;;;0.93;;
74935;SDS011;63501;55.570;37.488;2022-11-15T11:39:53;2.92;;;1.40;;
74935;SDS011;63501;55.570;37.488;2022-11-15T11:50:44;4.25;;;0.80;;
74935;SDS011;63501;55.570;37.488;2022-11-15T12:00:42;3.78;;;0.90;;
74935;SDS011;63501;55.570;37.488;2022-11-15T12:06:35;3.45;;;1.35;;
74935;SDS011;63501;55.570;37.488;2022-11-15T12:09:06;3.92;;;1.17;;
74935;SDS011;63501;55.570;37.488;2022-11-15T12:14:28;2.75;;;0.90;;
74935;SDS011;63501;55.570;37.488;2022-11-15T12:17:13;4.53;;;1.17;;
74935;SDS011;63501;55.570;37.488;2022-11-15T12:19:43;4.22;;;1.05;;
74935;SDS011;63501;55.570;37.488;2022-11-15T12:22:34;4.05;;;1.00;;
74935;SDS011;63501;55.570;37.488;2022-11-15T12:25:02;2.45;;;1.02;;
74935;SDS011;63501;55.570;37.488;2022-11-15T12:27:50;2.50;;;1.20;;
74935;SDS011;63501;55.570;37.488;2022-11-15T12:30:21;2.72;;;1.05;;
74935;SDS011;63501;55.570;37.488;2022-11-15T12:32:49;2.42;;;0.98;;
74935;SDS011;63501;55.570;37.488;2022-11-15T12:35:42;2.15;;;1.10;;
74935;SDS011;63501;55.570;37.488;2022-11-15T12:41:11;5.22;;;1.38;;
74935;SDS011;63501;55.570;37.488;2022-11-15T12:43:38;5.40;;;1.20;;
74935;SDS011;63501;55.570;37.488;2022-11-15T12:46:05;3.30;;;1.33;;
74935;SDS011;63501;55.570;37.488;2022-11-15T12:51:03;0.82;;;0.70;;
74935;SDS011;63501;55.570;37.488;2022-11-15T12:53:30;2.40;;;1.40;;
74935;SDS011;63501;55.570;37.488;2022-11-15T13:02:16;1.90;;;0.95;;
74935;SDS011;63501;55.570;37.488;2022-11-15T13:17:01;1.88;;;1.00;;
74935;SDS011;63501;55.570;37.488;2022-11-15T13:19:27;1.92;;;1.00;;
74935;SDS011;63501;55.570;37.488;2022-11-15T13:21:54;3.65;;;0.90;;
74935;SDS011;63501;55.570;37.488;2022-11-15T13:24:38;2.17;;;0.80;;
74935;SDS011;63501;55.570;37.488;2022-11-15T13:27:37;2.60;;;1.00;;
74935;SDS011;63501;55.570;37.488;2022-11-15T13:29:56;3.83;;;1.17;;
74935;SDS011;63501;55.570;37.488;2022-11-15T13:32:21;2.88;;;1.10;;
74935;SDS011;63501;55.570;37.488;2022-11-15T13:34:48;3.40;;;1.00;;
74935;SDS011;63501;55.570;37.488;2022-11-15T13:37:27;1.63;;;0.90;;
74935;SDS011;63501;55.570;37.488;2022-11-15T13:39:57;3.53;;;1.23;;
74935;SDS011;63501;55.570;37.488;2022-11-15T13:42:41;4.95;;;1.42;;
74935;SDS011;63501;55.570;37.488;2022-11-15T13:45:11;2.83;;;1.73;;
74935;SDS011;63501;55.570;37.488;2022-11-15T13:47:39;3.25;;;1.67;;
74935;SDS011;63501;55.570;37.488;2022-11-15T13:50:05;4.88;;;2.03;;
74935;SDS011;63501;55.570;37.488;2022-11-15T13:52:34;2.58;;;1.40;;
74935;SDS011;63501;55.570;37.488;2022-11-15T13:57:36;5.22;;;2.30;;
74935;SDS011;63501;55.570;37.488;2022-11-15T14:02:50;8.77;;;3.13;;
74935;SDS011;63501;55.570;37.488;2022-11-15T14:05:18;7.50;;;2.88;;
74935;SDS011;63501;55.570;37.488;2022-11-15T14:07:53;5.25;;;2.55;;
74935;SDS011;63501;55.570;37.488;2022-11-15T14:10:29;4.13;;;2.08;;
74935;SDS011;63501;55.570;37.488;2022-11-15T14:12:56;5.97;;;2.70;;
74935;SDS011;63501;55.570;37.488;2022-11-15T14:15:35;5.80;;;2.83;;
74935;SDS011;63501;55.570;37.488;2022-11-15T14:18:02;6.85;;;2.17;;
74935;SDS011;63501;55.570;37.488;2022-11-15T14:23:19;7.03;;;2.15;;
74935;SDS011;63501;55.570;37.488;2022-11-15T14:25:58;4.72;;;2.15;;
74935;SDS011;63501;55.570;37.488;2022-11-15T14:30:50;4.85;;;2.25;;
74935;SDS011;63501;55.570;37.488;2022-11-15T14:35:57;5.00;;;1.98;;
74935;SDS011;63501;55.570;37.488;2022-11-15T14:38:28;4.47;;;2.20;;
74935;SDS011;63501;55.570;37.488;2022-11-15T14:40:53;3.17;;;1.70;;
74935;SDS011;63501;55.570;37.488;2022-11-15T14:43:20;4.18;;;1.52;;
74935;SDS011;63501;55.570;37.488;2022-11-15T14:45:46;4.00;;;1.90;;
74935;SDS011;63501;55.570;37.488;2022-11-15T14:48:12;3.40;;;1.75;;
74935;SDS011;63501;55.570;37.488;2022-11-15T14:50:37;3.58;;;1.70;;
74935;SDS011;63501;55.570;37.488;2022-11-15T14:53:03;4.93;;;1.55;;
74935;SDS011;63501;55.570;37.488;2022-11-15T14:55:30;2.28;;;1.73;;
74935;SDS011;63501;55.570;37.488;2022-11-15T14:58:00;3.70;;;2.00;;
74935;SDS011;63501;55.570;37.488;2022-11-15T15:00:28;5.93;;;2.13;;
74935;SDS011;63501;55.570;37.488;2022-11-15T15:02:57;4.47;;;1.88;;
74935;SDS011;63501;55.570;37.488;2022-11-15T15:05:25;4.75;;;2.00;;
74935;SDS011;63501;55.570;37.488;2022-11-15T15:08:00;4.53;;;1.58;;
74935;SDS011;63501;55.570;37.488;2022-11-15T15:10:40;3.53;;;1.90;;
74935;SDS011;63501;55.570;37.488;2022-11-15T15:13:12;4.82;;;1.70;;
74935;SDS011;63501;55.570;37.488;2022-11-15T15:15:42;3.55;;;1.40;;
74935;SDS011;63501;55.570;37.488;2022-11-15T15:18:07;4.97;;;1.80;;
74935;SDS011;63501;55.570;37.488;2022-11-15T15:20:34;4.35;;;2.10;;
74935;SDS011;63501;55.570;37.488;2022-11-15T15:23:01;3.45;;;1.58;;
74935;SDS011;63501;55.570;37.488;2022-11-15T15:25:33;3.05;;;1.60;;
74935;SDS011;63501;55.570;37.488;2022-11-15T15:28:02;3.35;;;1.42;;
74935;SDS011;63501;55.570;37.488;2022-11-15T15:30:29;3.95;;;1.42;;
74935;SDS011;63501;55.570;37.488;2022-11-15T15:32:55;3.90;;;1.55;;
74935;SDS011;63501;55.570;37.488;2022-11-15T15:35:21;3.58;;;1.70;;
74935;SDS011;63501;55.570;37.488;2022-11-15T15:37:48;2.70;;;1.10;;
74935;SDS011;63501;55.570;37.488;2022-11-15T15:40:19;3.42;;;1.35;;
74935;SDS011;63501;55.570;37.488;2022-11-15T15:42:46;3.08;;;1.13;;
74935;SDS011;63501;55.570;37.488;2022-11-15T15:45:12;3.55;;;1.88;;
74935;SDS011;63501;55.570;37.488;2022-11-15T15:47:38;4.20;;;1.95;;
74935;SDS011;63501;55.570;37.488;2022-11-15T15:50:11;2.42;;;1.67;;
74935;SDS011;63501;55.570;37.488;2022-11-15T15:53:00;3.45;;;1.77;;
74935;SDS011;63501;55.570;37.488;2022-11-15T15:55:28;4.32;;;2.00;;
74935;SDS011;63501;55.570;37.488;2022-11-15T15:57:54;7.47;;;2.00;;
74935;SDS011;63501;55.570;37.488;2022-11-15T16:00:20;2.72;;;1.67;;
74935;SDS011;63501;55.570;37.488;2022-11-15T16:02:48;3.15;;;2.00;;
74935;SDS011;63501;55.570;37.488;2022-11-15T16:05:14;6.18;;;2.78;;
74935;SDS011;63501;55.570;37.488;2022-11-15T16:07:40;5.53;;;2.65;;
74935;SDS011;63501;55.570;37.488;2022-11-15T16:10:15;4.82;;;1.92;;
74935;SDS011;63501;55.570;37.488;2022-11-15T16:12:43;4.50;;;2.38;;
74935;SDS011;63501;55.570;37.488;2022-11-15T16:15:08;3.40;;;2.22;;
74935;SDS011;63501;55.570;37.488;2022-11-15T16:17:35;6.05;;;2.65;;
74935;SDS011;63501;55.570;37.488;2022-11-15T16:20:05;6.43;;;2.70;;
74935;SDS011;63501;55.570;37.488;2022-11-15T16:22:31;4.35;;;2.20;;
74935;SDS011;63501;55.570;37.488;2022-11-15T16:24:56;7.00;;;3.50;;
74935;SDS011;63501;55.570;37.488;2022-11-15T16:27:22;6.70;;;2.85;;
74935;SDS011;63501;55.570;37.488;2022-11-15T16:29:48;5.72;;;2.58;;
74935;SDS011;63501;55.570;37.488;2022-11-15T16:32:14;5.90;;;3.35;;
74935;SDS011;63501;55.570;37.488;2022-11-15T16:34:40;5.05;;;2.92;;
74935;SDS011;63501;55.570;37.488;2022-11-15T16:37:40;6.00;;;3.30;;
74935;SDS011;63501;55.570;37.488;2022-11-15T16:39:58;6.43;;;3.17;;
74935;SDS011;63501;55.570;37.488;2022-11-15T16:42:23;6.18;;;2.95;;
74935;SDS011;63501;55.570;37.488;2022-11-15T16:44:49;7.22;;;3.20;;
74935;SDS011;63501;55.570;37.488;2022-11-15T16:47:18;9.63;;;3.83;;
74935;SDS011;63501;55.570;37.488;2022-11-15T16:49:44;6.90;;;3.83;;
74935;SDS011;63501;55.570;37.488;2022-11-15T16:52:10;7.05;;;4.07;;
74935;SDS011;63501;55.570;37.488;2022-11-15T16:54:36;5.90;;;3.33;;
74935;SDS011;63501;55.570;37.488;2022-11-15T16:57:01;8.07;;;3.47;;
74935;SDS011;63501;55.570;37.488;2022-11-15T16:59:27;4.63;;;3.35;;
74935;SDS011;63501;55.570;37.488;2022-11-15T17:01:52;6.47;;;3.38;;
74935;SDS011;63501;55.570;37.488;2022-11-15T17:04:18;5.00;;;3.25;;
74935;SDS011;63501;55.570;37.488;2022-11-15T17:06:45;6.32;;;3.10;;
74935;SDS011;63501;55.570;37.488;2022-11-15T17:09:13;3.03;;;2.10;;
74935;SDS011;63501;55.570;37.488;2022-11-15T17:11:43;4.05;;;2.28;;
74935;SDS011;63501;55.570;37.488;2022-11-15T17:14:09;4.80;;;2.35;;
74935;SDS011;63501;55.570;37.488;2022-11-15T17:16:35;4.82;;;2.42;;
74935;SDS011;63501;55.570;37.488;2022-11-15T17:19:09;5.03;;;2.38;;
74935;SDS011;63501;55.570;37.488;2022-11-15T17:21:37;4.93;;;2.85;;
74935;SDS011;63501;55.570;37.488;2022-11-15T17:24:02;6.05;;;2.50;;
74935;SDS011;63501;55.570;37.488;2022-11-15T17:26:28;4.85;;;2.45;;
74935;SDS011;63501;55.570;37.488;2022-11-15T17:28:54;3.85;;;2.13;;
74935;SDS011;63501;55.570;37.488;2022-11-15T17:31:21;4.82;;;2.83;;
74935;SDS011;63501;55.570;37.488;2022-11-15T17:33:47;5.15;;;2.72;;
74935;SDS011;63501;55.570;37.488;2022-11-15T17:36:12;5.30;;;2.40;;
74935;SDS011;63501;55.570;37.488;2022-11-15T17:38:40;3.22;;;2.15;;
74935;SDS011;63501;55.570;37.488;2022-11-15T17:41:08;4.38;;;2.00;;
74935;SDS011;63501;55.570;37.488;2022-11-15T17:43:36;6.47;;;2.88;;
74935;SDS011;63501;55.570;37.488;2022-11-15T17:46:03;5.60;;;2.38;;
74935;SDS011;63501;55.570;37.488;2022-11-15T17:48:30;5.03;;;2.92;;
74935;SDS011;63501;55.570;37.488;2022-11-15T17:51:00;4.00;;;2.10;;
74935;SDS011;63501;55.570;37.488;2022-11-15T17:53:31;4.00;;;2.40;;
74935;SDS011;63501;55.570;37.488;2022-11-15T17:56:01;4.03;;;2.15;;
74935;SDS011;63501;55.570;37.488;2022-11-15T17:58:28;4.22;;;1.83;;
74935;SDS011;63501;55.570;37.488;2022-11-15T18:00:54;4.85;;;2.22;;
74935;SDS011;63501;55.570;37.488;2022-11-15T18:03:20;5.47;;;2.13;;
74935;SDS011;63501;55.570;37.488;2022-11-15T18:05:45;5.38;;;2.20;;
74935;SDS011;63501;55.570;37.488;2022-11-15T18:08:11;4.57;;;2.47;;
74935;SDS011;63501;55.570;37.488;2022-11-15T18:10:40;5.00;;;2.80;;
74935;SDS011;63501;55.570;37.488;2022-11-15T18:13:06;4.70;;;2.67;;
74935;SDS011;63501;55.570;37.488;2022-11-15T18:15:34;4.65;;;2.00;;
74935;SDS011;63501;55.570;37.488;2022-11-15T18:17:59;5.20;;;2.53;;
74935;SDS011;63501;55.570;37.488;2022-11-15T18:20:25;4.88;;;1.70;;
74935;SDS011;63501;55.570;37.488;2022-11-15T18:22:53;2.05;;;1.20;;
74935;SDS011;63501;55.570;37.488;2022-11-15T18:25:19;3.45;;;1.27;;
74935;SDS011;63501;55.570;37.488;2022-11-15T18:27:45;4.25;;;1.70;;
74935;SDS011;63501;55.570;37.488;2022-11-15T18:30:11;3.05;;;1.67;;
74935;SDS011;63501;55.570;37.488;2022-11-15T18:32:36;2.88;;;1.60;;
74935;SDS011;63501;55.570;37.488;2022-11-15T18:35:02;3.63;;;1.80;;
74935;SDS011;63501;55.570;37.488;2022-11-15T18:37:28;3.80;;;1.40;;
74935;SDS011;63501;55.570;37.488;2022-11-15T18:39:54;4.60;;;2.13;;
74935;SDS011;63501;55.570;37.488;2022-11-15T18:42:20;2.90;;;1.42;;
74935;SDS011;63501;55.570;37.488;2022-11-15T18:44:45;3.75;;;1.42;;
74935;SDS011;63501;55.570;37.488;2022-11-15T18:47:11;4.35;;;2.08;;
74935;SDS011;63501;55.570;37.488;2022-11-15T18:49:36;4.72;;;2.22;;
74935;SDS011;63501;55.570;37.488;2022-11-15T18:52:02;3.35;;;1.73;;
74935;SDS011;63501;55.570;37.488;2022-11-15T18:54:28;4.25;;;2.00;;
74935;SDS011;63501;55.570;37.488;2022-11-15T18:56:53;4.60;;;1.98;;
74935;SDS011;63501;55.570;37.488;2022-11-15T18:59:19;5.00;;;2.13;;
74935;SDS011;63501;55.570;37.488;2022-11-15T19:01:45;5.47;;;2.83;;
74935;SDS011;63501;55.570;37.488;2022-11-15T19:04:16;3.13;;;2.40;;
74935;SDS011;63501;55.570;37.488;2022-11-15T19:06:44;4.18;;;2.45;;
74935;SDS011;63501;55.570;37.488;2022-11-15T19:09:12;4.28;;;1.92;;
74935;SDS011;63501;55.570;37.488;2022-11-15T19:14:07;5.18;;;2.65;;
74935;SDS011;63501;55.570;37.488;2022-11-15T19:16:35;7.05;;;3.17;;
74935;SDS011;63501;55.570;37.488;2022-11-15T19:19:04;3.20;;;1.67;;
74935;SDS011;63501;55.570;37.488;2022-11-15T19:21:32;5.50;;;2.17;;
74935;SDS011;63501;55.570;37.488;2022-11-15T19:23:58;4.05;;;2.63;;
74935;SDS011;63501;55.570;37.488;2022-11-15T19:26:24;4.93;;;2.53;;
74935;SDS011;63501;55.570;37.488;2022-11-15T19:28:57;5.22;;;2.67;;
74935;SDS011;63501;55.570;37.488;2022-11-15T19:31:25;5.32;;;2.70;;
74935;SDS011;63501;55.570;37.488;2022-11-15T19:33:53;3.47;;;1.73;;
74935;SDS011;63501;55.570;37.488;2022-11-15T19:36:21;5.93;;;2.80;;
74935;SDS011;63501;55.570;37.488;2022-11-15T19:38:48;5.55;;;2.88;;
74935;SDS011;63501;55.570;37.488;2022-11-15T19:41:18;5.90;;;2.53;;
74935;SDS011;63501;55.570;37.488;2022-11-15T19:43:45;4.88;;;2.38;;
74935;SDS011;63501;55.570;37.488;2022-11-15T19:46:12;6.30;;;2.30;;
74935;SDS011;63501;55.570;37.488;2022-11-15T19:48:38;3.25;;;1.77;;
74935;SDS011;63501;55.570;37.488;2022-11-15T19:51:11;3.95;;;2.25;;
74935;SDS011;63501;55.570;37.488;2022-11-15T19:53:40;4.07;;;2.35;;
74935;SDS011;63501;55.570;37.488;2022-11-15T19:56:07;5.07;;;2.00;;
74935;SDS011;63501;55.570;37.488;2022-11-15T19:58:35;5.18;;;2.67;;
74935;SDS011;63501;55.570;37.488;2022-11-15T20:01:05;4.95;;;2.50;;
74935;SDS011;63501;55.570;37.488;2022-11-15T20:03:33;5.20;;;2.60;;
74935;SDS011;63501;55.570;37.488;2022-11-15T20:06:00;5.07;;;2.20;;
74935;SDS011;63501;55.570;37.488;2022-11-15T20:08:33;4.65;;;1.92;;
74935;SDS011;63501;55.570;37.488;2022-11-15T20:10:59;3.95;;;2.22;;
74935;SDS011;63501;55.570;37.488;2022-11-15T20:13:25;4.97;;;2.15;;
74935;SDS011;63501;55.570;37.488;2022-11-15T20:15:52;4.50;;;2.05;;
74935;SDS011;63501;55.570;37.488;2022-11-15T20:18:18;3.28;;;1.92;;
74935;SDS011;63501;55.570;37.488;2022-11-15T20:20:46;5.35;;;2.55;;
74935;SDS011;63501;55.570;37.488;2022-11-15T20:23:12;10.02;;;2.67;;